createdAt,value
2023-04-27T00:00:53.941Z,0.5
2023-04-27T00:01:58.756Z,0.5
2023-04-27T00:03:03.819Z,0.5
2023-04-27T00:04:08.575Z,0.5
2023-04-27T00:05:13.317Z,0.5
2023-04-27T00:06:18.050Z,0.5
2023-04-27T00:07:22.660Z,0.5
2023-04-27T00:08:27.416Z,0.5
2023-04-27T00:09:32.300Z,0.5
2023-04-27T00:10:36.962Z,0.5
2023-04-27T00:11:41.691Z,0.5
2023-04-27T00:12:46.571Z,0.5
2023-04-27T00:13:51.274Z,0.5
2023-04-27T00:14:56.006Z,0.5
2023-04-27T00:16:01.000Z,0.5
2023-04-27T00:17:05.634Z,0.5
2023-04-27T00:18:10.330Z,0.5
2023-04-27T00:19:15.530Z,0.5
2023-04-27T00:20:19.860Z,0.5
2023-04-27T00:21:24.802Z,0.5
2023-04-27T00:22:29.491Z,1
2023-04-27T00:23:34.345Z,1
2023-04-27T00:24:39.184Z,1
2023-04-27T00:25:43.899Z,1
2023-04-27T00:26:48.462Z,1
2023-04-27T00:27:53.420Z,1
2023-04-27T00:28:58.095Z,1
2023-04-27T00:30:02.828Z,1
2023-04-27T00:31:07.769Z,1
2023-04-27T00:32:12.498Z,1
2023-04-27T00:33:17.168Z,1
2023-04-27T00:34:21.933Z,1
2023-04-27T00:35:26.749Z,1
2023-04-27T00:36:31.669Z,1
2023-04-27T00:37:36.230Z,1
2023-04-27T00:38:41.052Z,1
2023-04-27T00:39:45.824Z,1
2023-04-27T00:40:50.638Z,1
2023-04-27T00:41:55.360Z,1
2023-04-27T00:43:00.138Z,1
2023-04-27T00:44:04.990Z,1
2023-04-27T00:45:09.725Z,1
2023-04-27T00:46:14.424Z,1
2023-04-27T00:47:19.287Z,1
2023-04-27T00:48:24.024Z,1
2023-04-27T00:49:28.774Z,1
2023-04-27T00:50:33.622Z,1
2023-04-27T00:51:38.541Z,1
2023-04-27T00:52:43.142Z,1
2023-04-27T00:53:48.256Z,1
2023-04-27T00:54:52.702Z,1
2023-04-27T00:55:57.476Z,1
2023-04-27T00:57:02.292Z,1
2023-04-27T00:58:07.253Z,1
2023-04-27T00:59:12.175Z,1
2023-04-27T01:00:16.808Z,1
2023-04-27T01:01:21.659Z,1
2023-04-27T01:02:26.422Z,1
2023-04-27T01:03:31.181Z,1
2023-04-27T01:04:36.067Z,1
2023-04-27T01:05:40.533Z,1
2023-04-27T01:06:45.307Z,1
2023-04-27T01:07:50.257Z,1
2023-04-27T01:08:54.836Z,1
2023-04-27T01:09:59.746Z,1
2023-04-27T01:11:04.567Z,1
2023-04-27T01:12:09.282Z,1
2023-04-27T01:13:13.988Z,1
2023-04-27T01:14:18.896Z,1
2023-04-27T01:15:23.512Z,1
2023-04-27T01:16:28.357Z,1
2023-04-27T01:17:33.323Z,1
2023-04-27T01:18:37.885Z,1
2023-04-27T01:19:42.622Z,1
2023-04-27T01:20:47.535Z,1
2023-04-27T01:21:52.114Z,1
2023-04-27T01:22:56.902Z,1.5
2023-04-27T01:24:01.741Z,1.5
2023-04-27T01:25:06.638Z,1.5
2023-04-27T01:26:11.250Z,1.5
2023-04-27T01:27:16.165Z,1.5
2023-04-27T01:28:20.831Z,1.5
2023-04-27T01:29:25.598Z,1.5
2023-04-27T01:30:30.616Z,1.5
2023-04-27T01:31:35.237Z,1.5
2023-04-27T01:32:40.066Z,1.5
2023-04-27T01:33:44.724Z,1.5
2023-04-27T01:34:50.203Z,1.5
2023-04-27T01:35:54.251Z,1.5
2023-04-27T01:36:59.212Z,1.5
2023-04-27T01:38:03.839Z,1.5
2023-04-27T01:39:08.596Z,1.5
2023-04-27T01:40:13.379Z,1.5
2023-04-27T01:41:18.202Z,1.5
2023-04-27T01:42:24.175Z,1
2023-04-27T01:43:28.890Z,1
2023-04-27T01:44:33.662Z,1
2023-04-27T01:45:38.464Z,1
2023-04-27T01:46:43.279Z,1
2023-04-27T01:47:48.080Z,1
2023-04-27T01:48:52.891Z,1
2023-04-27T01:49:57.638Z,1
2023-04-27T01:51:07.541Z,1
2023-04-27T01:54:19.147Z,1
2023-04-27T01:56:36.950Z,1
2023-04-27T01:58:52.901Z,1
2023-04-27T01:59:53.409Z,1
2023-04-27T02:00:58.959Z,1
2023-04-27T02:02:04.646Z,1
2023-04-27T02:03:05.126Z,1
2023-04-27T02:04:12.314Z,1
2023-04-27T02:05:12.647Z,1
2023-04-27T02:06:21.879Z,1
2023-04-27T02:07:22.381Z,1
2023-04-27T02:09:37.125Z,1
2023-04-27T02:10:42.602Z,1
2023-04-27T02:11:43.142Z,1
2023-04-27T02:13:55.890Z,1
2023-04-27T02:15:01.425Z,1
2023-04-27T02:16:01.991Z,1
2023-04-27T02:17:09.966Z,1
2023-04-27T02:18:15.585Z,1
2023-04-27T02:19:16.508Z,1
2023-04-27T02:20:34.073Z,1
2023-04-27T02:21:39.540Z,1
2023-04-27T02:23:45.579Z,1
2023-04-27T02:24:55.981Z,1
2023-04-27T02:25:56.495Z,1
2023-04-27T02:26:57.218Z,1
2023-04-27T02:28:10.695Z,1
2023-04-27T02:29:16.270Z,1
2023-04-27T02:36:09.286Z,1
2023-04-27T02:38:30.059Z,1
2023-04-27T02:39:40.629Z,1
2023-04-27T02:40:46.064Z,1
2023-04-27T02:43:12.097Z,2.1
2023-04-27T02:44:22.623Z,2.1
2023-04-27T02:49:24.130Z,2.1
2023-04-27T02:51:49.933Z,2.1
2023-04-27T02:56:36.696Z,2.1
2023-04-27T02:57:42.263Z,2.1
2023-04-27T03:03:54.941Z,2.1
2023-04-27T03:05:05.172Z,2.1
2023-04-27T03:08:36.520Z,2.1
2023-04-27T03:09:37.209Z,2.1
2023-04-27T03:11:53.303Z,2.1
2023-04-27T03:14:14.080Z,2.1
2023-04-27T03:16:39.878Z,2.1
2023-04-27T03:20:15.981Z,2.1
2023-04-27T03:21:21.369Z,2.1
2023-04-27T03:22:21.907Z,3.1
2023-04-27T03:23:22.432Z,3.1
2023-04-27T03:24:26.348Z,3.1
2023-04-27T03:25:31.329Z,3.1
2023-04-27T03:26:35.880Z,3.1
2023-04-27T03:27:40.628Z,3.1
2023-04-27T03:28:45.413Z,3.1
2023-04-27T03:29:50.261Z,3.1
2023-04-27T03:30:54.971Z,3.1
2023-04-27T03:31:59.809Z,3.1
2023-04-27T03:33:04.558Z,3.1
2023-04-27T03:34:09.326Z,3.1
2023-04-27T03:35:14.125Z,3.1
2023-04-27T03:36:18.916Z,3.1
2023-04-27T03:37:23.728Z,3.1
2023-04-27T03:38:28.509Z,3.1
2023-04-27T03:39:33.307Z,3.1
2023-04-27T03:40:38.096Z,3.1
2023-04-27T03:41:43.073Z,3.1
2023-04-27T03:42:48.486Z,4.1
2023-04-27T03:43:53.325Z,4.1
2023-04-27T03:44:58.038Z,4.1
2023-04-27T03:46:02.879Z,4.1
2023-04-27T03:47:07.601Z,4.1
2023-04-27T03:48:12.388Z,4.1
2023-04-27T03:49:17.172Z,4.1
2023-04-27T03:50:21.907Z,4.1
2023-04-27T03:51:26.722Z,4.1
2023-04-27T03:52:31.569Z,4.1
2023-04-27T03:53:36.290Z,4.1
2023-04-27T03:54:41.245Z,4.1
2023-04-27T03:55:45.916Z,4.1
2023-04-27T03:56:50.763Z,4.1
2023-04-27T03:57:55.467Z,4.1
2023-04-27T03:59:00.200Z,4.1
2023-04-27T04:00:04.975Z,4.1
2023-04-27T04:01:09.921Z,4.1
2023-04-27T04:02:16.346Z,4.1
2023-04-27T04:03:21.155Z,4.1
2023-04-27T04:04:25.996Z,4.1
2023-04-27T04:05:30.491Z,4.1
2023-04-27T04:06:35.292Z,4.1
2023-04-27T04:07:40.111Z,4.1
2023-04-27T04:08:44.888Z,4.1
2023-04-27T04:09:49.682Z,4.1
2023-04-27T04:10:54.484Z,4.1
2023-04-27T04:11:59.362Z,4.1
2023-04-27T04:13:04.174Z,4.1
2023-04-27T04:14:08.862Z,4.1
2023-04-27T04:15:13.523Z,4.1
2023-04-27T04:16:18.355Z,4.1
2023-04-27T04:17:23.300Z,4.1
2023-04-27T04:18:27.852Z,4.1
2023-04-27T04:19:32.650Z,4.1
2023-04-27T04:20:37.362Z,4.1
2023-04-27T04:21:42.201Z,4.1
2023-04-27T04:22:48.501Z,3.6
2023-04-27T04:23:53.389Z,3.6
2023-04-27T04:24:58.245Z,3.6
2023-04-27T04:26:02.831Z,3.6
2023-04-27T04:27:07.653Z,3.6
2023-04-27T04:28:12.392Z,3.6
2023-04-27T04:29:17.197Z,3.6
2023-04-27T04:30:22.196Z,3.6
2023-04-27T04:31:27.073Z,3.6
2023-04-27T04:32:31.684Z,3.6
2023-04-27T04:33:36.352Z,3.6
2023-04-27T04:34:41.176Z,3.6
2023-04-27T04:35:46.062Z,3.6
2023-04-27T04:36:50.668Z,3.6
2023-04-27T04:37:55.524Z,3.6
2023-04-27T04:39:00.251Z,3.6
2023-04-27T04:40:05.185Z,3.6
2023-04-27T04:41:09.786Z,3.6
2023-04-27T04:42:16.123Z,3.6
2023-04-27T04:43:20.973Z,3.6
2023-04-27T04:44:25.800Z,3.6
2023-04-27T04:45:30.706Z,3.6
2023-04-27T04:46:35.291Z,3.6
2023-04-27T04:47:40.156Z,3.6
2023-04-27T04:48:44.811Z,3.6
2023-04-27T04:49:49.597Z,3.6
2023-04-27T04:50:54.437Z,3.6
2023-04-27T04:51:59.223Z,3.6
2023-04-27T04:53:03.999Z,3.6
2023-04-27T04:54:08.780Z,3.6
2023-04-27T04:55:13.707Z,3.6
2023-04-27T04:56:18.362Z,3.6
2023-04-27T04:57:23.341Z,3.6
2023-04-27T04:58:27.956Z,3.6
2023-04-27T04:59:32.744Z,3.6
2023-04-27T05:00:37.528Z,3.6
2023-04-27T05:01:42.599Z,3.6
2023-04-27T05:02:48.584Z,3.6
2023-04-27T05:03:53.356Z,3.6
2023-04-27T05:04:58.098Z,3.6
2023-04-27T05:06:02.715Z,3.6
2023-04-27T05:07:07.697Z,3.6
2023-04-27T05:08:12.325Z,3.6
2023-04-27T05:09:17.228Z,3.6
2023-04-27T05:10:21.869Z,3.6
2023-04-27T05:11:26.685Z,3.6
2023-04-27T05:12:31.391Z,3.6
2023-04-27T05:13:36.408Z,3.6
2023-04-27T05:14:40.973Z,3.6
2023-04-27T05:15:45.797Z,3.6
2023-04-27T05:16:50.556Z,3.6
2023-04-27T05:17:55.523Z,3.6
2023-04-27T05:19:00.130Z,3.6
2023-04-27T05:20:04.979Z,3.6
2023-04-27T05:21:09.650Z,3.6
2023-04-27T05:22:14.404Z,3.6
2023-04-27T05:23:19.301Z,3.6
2023-04-27T05:24:23.959Z,3.6
2023-04-27T05:25:28.922Z,3.6
2023-04-27T05:26:33.513Z,3.6
2023-04-27T05:27:38.459Z,3.6
2023-04-27T05:29:12.261Z,3.6
2023-04-27T05:30:12.618Z,3.6
2023-04-27T05:31:13.178Z,3.6
2023-04-27T05:32:16.899Z,3.6
2023-04-27T05:33:21.829Z,3.6
2023-04-27T05:34:26.623Z,3.6
2023-04-27T05:35:31.344Z,3.6
2023-04-27T05:36:36.029Z,3.6
2023-04-27T05:37:40.817Z,3.6
2023-04-27T05:38:45.568Z,3.6
2023-04-27T05:39:50.327Z,3.6
2023-04-27T05:40:55.630Z,3.6
2023-04-27T05:42:00.000Z,3.6
2023-04-27T05:43:04.792Z,3.6
2023-04-27T05:44:09.400Z,3.6
2023-04-27T05:45:14.443Z,3.6
2023-04-27T05:46:19.191Z,3.6
2023-04-27T05:47:23.853Z,3.6
2023-04-27T05:48:28.552Z,2.1
2023-04-27T05:49:33.377Z,2.1
2023-04-27T05:50:38.221Z,2.1
2023-04-27T05:51:43.046Z,2.1
2023-04-27T05:52:47.639Z,2.1
2023-04-27T05:53:52.666Z,2.1
2023-04-27T05:54:57.484Z,2.1
2023-04-27T05:56:02.223Z,2.1
2023-04-27T05:57:07.129Z,2.1
2023-04-27T05:58:12.084Z,2.1
2023-04-27T05:59:16.700Z,2.1
2023-04-27T06:00:21.358Z,2.1
2023-04-27T06:01:26.198Z,2.1
2023-04-27T06:02:30.994Z,2.1
2023-04-27T06:03:35.918Z,2.1
2023-04-27T06:04:40.585Z,2.1
2023-04-27T06:05:45.226Z,2.1
2023-04-27T06:06:50.017Z,2.1
2023-04-27T06:07:54.744Z,2.1
2023-04-27T06:08:59.480Z,1
2023-04-27T06:10:04.253Z,1
2023-04-27T06:11:09.088Z,1
2023-04-27T06:12:13.797Z,1
2023-04-27T06:13:18.639Z,1
2023-04-27T06:14:23.387Z,1
2023-04-27T06:15:28.175Z,1
2023-04-27T06:16:33.027Z,1
2023-04-27T06:17:37.806Z,1
2023-04-27T06:18:42.707Z,1
2023-04-27T06:19:47.289Z,1
2023-04-27T06:20:52.158Z,1
2023-04-27T06:21:57.084Z,1
2023-04-27T06:23:01.683Z,1
2023-04-27T06:24:06.509Z,1
2023-04-27T06:25:11.420Z,1
2023-04-27T06:26:16.157Z,1
2023-04-27T06:27:20.752Z,1
2023-04-27T06:28:25.521Z,1
2023-04-27T06:29:30.324Z,1
2023-04-27T06:30:35.746Z,1
2023-04-27T06:31:40.068Z,1
2023-04-27T06:32:44.720Z,1
2023-04-27T06:33:49.566Z,1
2023-04-27T06:34:54.365Z,1
2023-04-27T06:35:58.972Z,1
2023-04-27T06:37:03.919Z,1
2023-04-27T06:38:08.555Z,1
2023-04-27T06:39:13.546Z,1
2023-04-27T06:40:18.139Z,1
2023-04-27T06:41:22.916Z,1
2023-04-27T06:42:27.904Z,1
2023-04-27T06:43:32.516Z,1
2023-04-27T06:44:37.263Z,1
2023-04-27T06:45:42.011Z,1
2023-04-27T06:46:46.865Z,1
2023-04-27T06:47:51.742Z,1
2023-04-27T06:48:56.503Z,1
2023-04-27T06:50:01.102Z,1
2023-04-27T06:51:06.065Z,1
2023-04-27T06:52:10.660Z,1
2023-04-27T06:53:15.491Z,1
2023-04-27T06:54:20.194Z,1
2023-04-27T06:55:24.970Z,1
2023-04-27T06:56:29.965Z,1
2023-04-27T06:57:34.464Z,1
2023-04-27T06:58:39.256Z,1
2023-04-27T06:59:43.999Z,1
2023-04-27T07:00:48.790Z,1
2023-04-27T07:01:53.738Z,1
2023-04-27T07:02:58.406Z,1
2023-04-27T07:04:03.247Z,1
2023-04-27T07:05:07.889Z,1
2023-04-27T07:06:12.812Z,1
2023-04-27T07:07:17.429Z,1
2023-04-27T07:08:22.214Z,2.6
2023-04-27T07:09:27.907Z,2.6
2023-04-27T07:10:31.892Z,2.6
2023-04-27T07:11:36.544Z,2.6
2023-04-27T07:12:41.290Z,2.6
2023-04-27T07:13:46.041Z,2.6
2023-04-27T07:14:50.868Z,2.6
2023-04-27T07:15:55.566Z,2.6
2023-04-27T07:17:00.495Z,2.6
2023-04-27T07:18:05.286Z,2.6
2023-04-27T07:19:09.867Z,2.6
2023-04-27T07:20:14.877Z,2.6
2023-04-27T07:21:19.466Z,2.6
2023-04-27T07:22:24.387Z,2.6
2023-04-27T07:23:29.012Z,2.6
2023-04-27T07:24:33.959Z,2.6
2023-04-27T07:25:38.754Z,2.6
2023-04-27T07:26:43.543Z,2.6
2023-04-27T07:27:48.274Z,2.6
2023-04-27T07:28:52.887Z,2.6
2023-04-27T07:29:57.669Z,2.6
2023-04-27T07:31:02.436Z,2.6
2023-04-27T07:32:07.444Z,2.6
2023-04-27T07:33:12.181Z,2.6
2023-04-27T07:34:16.857Z,2.6
2023-04-27T07:35:21.477Z,2.6
2023-04-27T07:36:26.204Z,2.6
2023-04-27T07:37:31.021Z,2.6
2023-04-27T07:38:35.760Z,2.6
2023-04-27T07:39:40.601Z,2.6
2023-04-27T07:40:45.521Z,2.6
2023-04-27T07:41:50.241Z,2.6
2023-04-27T07:42:54.812Z,2.6
2023-04-27T07:43:59.766Z,2.6
2023-04-27T07:45:04.550Z,2.6
2023-04-27T07:46:09.431Z,2.6
2023-04-27T07:47:14.111Z,2.6
2023-04-27T07:48:20.313Z,2.1
2023-04-27T07:49:25.118Z,2.1
2023-04-27T07:50:29.923Z,2.1
2023-04-27T07:51:34.761Z,2.1
2023-04-27T07:52:39.265Z,2.1
2023-04-27T07:53:45.444Z,2.1
2023-04-27T07:54:48.796Z,2.1
2023-04-27T07:55:53.685Z,2.1
2023-04-27T07:56:58.639Z,2.1
2023-04-27T07:58:03.113Z,2.1
2023-04-27T07:59:07.896Z,2.1
2023-04-27T08:00:12.705Z,2.1
2023-04-27T08:01:18.990Z,2.1
2023-04-27T08:02:22.545Z,2.1
2023-04-27T08:03:27.171Z,2.1
2023-04-27T08:04:31.999Z,2.1
2023-04-27T08:05:37.042Z,2.1
2023-04-27T08:06:42.054Z,2.1
2023-04-27T08:07:46.372Z,2.1
2023-04-27T08:08:52.721Z,3.1
2023-04-27T08:09:57.453Z,3.1
2023-04-27T08:11:02.204Z,3.1
2023-04-27T08:12:07.005Z,3.1
2023-04-27T08:13:11.678Z,3.1
2023-04-27T08:14:16.645Z,3.1
2023-04-27T08:15:21.369Z,3.1
2023-04-27T08:16:26.137Z,3.1
2023-04-27T08:17:30.968Z,3.1
2023-04-27T08:18:35.708Z,3.1
2023-04-27T08:19:40.490Z,3.1
2023-04-27T08:20:45.294Z,3.1
2023-04-27T08:21:50.194Z,3.1
2023-04-27T08:22:54.824Z,3.1
2023-04-27T08:23:59.640Z,3.1
2023-04-27T08:25:04.419Z,3.1
2023-04-27T08:26:09.174Z,3.1
2023-04-27T08:27:13.947Z,3.1
2023-04-27T08:28:20.322Z,3.1
2023-04-27T08:29:28.182Z,3.1
2023-04-27T08:30:29.825Z,3.1
2023-04-27T08:31:34.887Z,3.1
2023-04-27T08:32:39.454Z,3.1
2023-04-27T08:33:44.351Z,3.1
2023-04-27T08:34:49.001Z,3.1
2023-04-27T08:36:45.790Z,3.1
2023-04-27T08:37:46.541Z,3.1
2023-04-27T08:38:47.058Z,3.1
2023-04-27T08:40:12.170Z,3.1
2023-04-27T08:41:21.159Z,3.1
2023-04-27T08:42:13.224Z,3.1
2023-04-27T08:43:41.312Z,3.1
2023-04-27T08:44:41.765Z,3.1
2023-04-27T08:46:29.578Z,3.1
2023-04-27T08:49:03.996Z,3.1
2023-04-27T08:50:04.717Z,3.1
2023-04-27T08:51:05.403Z,3.1
2023-04-27T08:52:08.853Z,3.1
2023-04-27T08:53:13.661Z,3.1
2023-04-27T08:54:18.383Z,3.1
2023-04-27T08:55:23.204Z,3.1
2023-04-27T08:56:50.864Z,3.1
2023-04-27T08:59:04.801Z,3.1
2023-04-27T09:01:03.777Z,3.1
2023-04-27T09:02:04.313Z,3.1
2023-04-27T09:03:06.489Z,3.1
2023-04-27T09:04:39.794Z,3.1
2023-04-27T09:05:46.557Z,3.1
2023-04-27T09:06:40.897Z,3.1
2023-04-27T09:07:44.551Z,3.1
2023-04-27T09:08:49.365Z,3.1
2023-04-27T09:09:54.083Z,3.1
2023-04-27T09:10:59.096Z,3.1
2023-04-27T09:12:03.861Z,3.1
2023-04-27T09:13:08.507Z,3.1
2023-04-27T09:14:13.292Z,3.1
2023-04-27T09:15:18.042Z,3.1
2023-04-27T09:16:22.898Z,3.1
2023-04-27T09:17:27.624Z,3.1
2023-04-27T09:18:32.571Z,3.1
2023-04-27T09:19:37.156Z,3.1
2023-04-27T09:20:41.971Z,3.1
2023-04-27T09:21:47.759Z,3.1
2023-04-27T09:22:51.542Z,3.1
2023-04-27T09:23:56.325Z,2.1
2023-04-27T09:25:01.119Z,2.1
2023-04-27T09:26:05.988Z,2.1
2023-04-27T09:27:10.617Z,2.1
2023-04-27T09:28:15.515Z,2.1
2023-04-27T09:29:20.284Z,2.1
2023-04-27T09:30:25.054Z,2.1
2023-04-27T09:31:29.757Z,2.1
2023-04-27T09:32:34.487Z,2.1
2023-04-27T09:33:39.249Z,2.1
2023-04-27T09:34:44.019Z,2.1
2023-04-27T09:35:48.818Z,2.1
2023-04-27T09:36:53.595Z,2.1
2023-04-27T09:37:58.571Z,2.1
2023-04-27T09:39:03.180Z,2.1
2023-04-27T09:40:08.129Z,2.1
2023-04-27T09:41:13.052Z,2.1
2023-04-27T09:42:17.657Z,2.1
2023-04-27T09:43:22.477Z,2.1
2023-04-27T09:44:27.266Z,3.1
2023-04-27T09:45:31.848Z,3.1
2023-04-27T09:46:36.733Z,3.1
2023-04-27T09:47:41.451Z,3.1
2023-04-27T09:48:46.250Z,3.1
2023-04-27T09:49:51.102Z,3.1
2023-04-27T09:50:55.652Z,3.1
2023-04-27T09:52:00.450Z,3.1
2023-04-27T09:53:05.263Z,3.1
2023-04-27T09:54:10.010Z,3.1
2023-04-27T09:55:14.867Z,3.1
2023-04-27T09:56:19.610Z,3.1
2023-04-27T09:57:24.430Z,3.1
2023-04-27T09:58:29.152Z,3.1
2023-04-27T09:59:34.034Z,3.1
2023-04-27T10:00:38.746Z,3.1
2023-04-27T10:01:43.618Z,3.1
2023-04-27T10:03:53.250Z,2.1
2023-04-27T10:04:57.963Z,2.1
2023-04-27T10:06:02.854Z,2.1
2023-04-27T10:07:07.485Z,2.1
2023-04-27T10:08:12.260Z,2.1
2023-04-27T10:09:17.087Z,2.1
2023-04-27T10:10:22.064Z,2.1
2023-04-27T10:11:26.688Z,2.1
2023-04-27T10:12:31.458Z,2.1
2023-04-27T10:13:36.226Z,2.1
2023-04-27T10:14:41.096Z,2.1
2023-04-27T10:15:45.921Z,2.1
2023-04-27T10:16:50.615Z,2.1
2023-04-27T10:17:55.498Z,2.1
2023-04-27T10:19:00.139Z,2.1
2023-04-27T10:20:04.926Z,2.1
2023-04-27T10:21:09.682Z,2.1
2023-04-27T10:22:14.637Z,2.1
2023-04-27T10:23:19.254Z,2.1
2023-04-27T10:24:24.087Z,2.1
2023-04-27T10:25:28.902Z,2.1
2023-04-27T10:26:35.735Z,2.1
2023-04-27T10:27:38.479Z,2.1
2023-04-27T10:30:37.035Z,2.1
2023-04-27T10:31:37.523Z,2.1
2023-04-27T10:32:38.104Z,2.1
2023-04-27T10:33:41.796Z,2.1
2023-04-27T10:35:38.295Z,2.1
2023-04-27T10:36:38.922Z,2.1
2023-04-27T10:37:39.421Z,2.1
2023-04-27T10:38:43.202Z,2.1
2023-04-27T10:39:49.521Z,2.1
2023-04-27T10:40:52.773Z,2.1
2023-04-27T10:41:57.673Z,2.1
2023-04-27T10:43:02.304Z,2.1
2023-04-27T10:44:07.094Z,2.1
2023-04-27T10:45:11.907Z,2.1
2023-04-27T10:46:16.742Z,2.1
2023-04-27T10:47:21.449Z,2.1
2023-04-27T10:48:26.451Z,2.1
2023-04-27T10:49:31.081Z,2.1
2023-04-27T10:50:35.935Z,2.1
2023-04-27T10:51:40.598Z,2.1
2023-04-27T10:52:45.607Z,2.1
2023-04-27T10:53:50.235Z,2.1
2023-04-27T10:54:55.119Z,3.1
2023-04-27T10:55:59.925Z,3.1
2023-04-27T10:57:04.641Z,3.1
2023-04-27T10:58:09.360Z,3.1
2023-04-27T10:59:14.394Z,3.1
2023-04-27T11:00:18.935Z,3.1
2023-04-27T11:01:23.792Z,3.1
2023-04-27T11:02:28.644Z,3.1
2023-04-27T11:03:33.399Z,3.1
2023-04-27T11:04:38.030Z,3.1
2023-04-27T11:05:43.005Z,3.1
2023-04-27T11:06:47.674Z,3.1
2023-04-27T11:07:52.538Z,3.1
2023-04-27T11:08:57.148Z,3.1
2023-04-27T11:10:01.855Z,3.1
2023-04-27T11:11:06.709Z,3.1
2023-04-27T11:12:11.408Z,3.1
2023-04-27T11:13:16.195Z,3.1
2023-04-27T11:14:20.950Z,3.1
2023-04-27T11:15:25.701Z,3.1
2023-04-27T11:16:32.606Z,3.1
2023-04-27T11:17:35.382Z,3.1
2023-04-27T11:18:40.236Z,3.1
2023-04-27T11:19:44.940Z,3.1
2023-04-27T11:20:49.633Z,3.1
2023-04-27T11:21:54.367Z,3.1
2023-04-27T11:22:59.155Z,3.1
2023-04-27T11:24:03.900Z,3.1
2023-04-27T11:25:08.785Z,3.1
2023-04-27T11:26:13.518Z,3.1
2023-04-27T11:27:18.293Z,3.1
2023-04-27T11:28:23.032Z,3.1
2023-04-27T11:29:27.957Z,3.1
2023-04-27T11:30:32.728Z,3.1
2023-04-27T11:31:37.402Z,3.1
2023-04-27T11:32:42.244Z,3.1
2023-04-27T11:33:46.878Z,3.1
2023-04-27T11:34:53.449Z,2.1
2023-04-27T11:35:56.706Z,2.1
2023-04-27T11:38:06.171Z,2.1
2023-04-27T11:39:10.860Z,2.1
2023-04-27T11:40:15.575Z,2.1
2023-04-27T11:41:20.312Z,2.1
2023-04-27T11:42:25.113Z,2.1
2023-04-27T11:44:34.843Z,2.1
2023-04-27T11:46:23.428Z,0
2023-04-27T11:47:26.526Z,0
2023-04-27T11:50:16.829Z,2.1
2023-04-27T11:51:17.390Z,2.1
2023-04-27T11:52:17.925Z,2.1
2023-04-27T11:53:21.707Z,2.1
2023-04-27T11:54:51.294Z,2.1
2023-04-27T11:55:51.831Z,2.1
2023-04-27T11:56:52.348Z,2.1
2023-04-27T11:59:26.002Z,2.1
2023-04-27T12:01:48.530Z,2.1
2023-04-27T12:02:49.202Z,2.1
2023-04-27T12:05:02.353Z,2.1
2023-04-27T12:07:03.060Z,2.1
2023-04-27T12:08:06.851Z,2.1
2023-04-27T12:19:02.322Z,2.1
2023-04-27T12:20:02.828Z,2.1
2023-04-27T12:25:46.497Z,2.1
2023-04-27T12:26:47.164Z,2.1
2023-04-27T12:27:47.854Z,2.1
2023-04-27T12:28:51.341Z,2.1
2023-04-27T12:29:56.110Z,2.1
2023-04-27T12:31:00.929Z,2.1
2023-04-27T12:32:05.641Z,2.1
2023-04-27T12:33:10.441Z,2.1
2023-04-27T12:34:15.420Z,2.1
2023-04-27T12:35:20.132Z,2.1
2023-04-27T12:36:24.778Z,2.1
2023-04-27T12:37:29.554Z,2.1
2023-04-27T12:38:34.355Z,2.1
2023-04-27T12:39:39.095Z,2.1
2023-04-27T12:40:43.860Z,2.1
2023-04-27T12:41:48.616Z,2.1
2023-04-27T12:42:53.450Z,2.1
2023-04-27T12:45:32.181Z,2.6
2023-04-27T12:46:46.630Z,2.6
2023-04-27T12:48:01.489Z,2.6
2023-04-27T12:50:57.223Z,2.6
2023-04-27T12:51:57.691Z,2.6
2023-04-27T12:52:58.204Z,2.6
2023-04-27T12:54:02.251Z,2.6
2023-04-27T12:55:07.107Z,2.6
2023-04-27T12:56:11.696Z,2.6
2023-04-27T12:57:16.593Z,2.6
2023-04-27T12:58:21.198Z,2.6
2023-04-27T12:59:26.025Z,2.6
2023-04-27T13:01:11.342Z,2.6
2023-04-27T13:02:11.862Z,2.6
2023-04-27T13:03:12.652Z,2.6
2023-04-27T13:04:16.576Z,2.6
2023-04-27T13:05:21.014Z,2.6
2023-04-27T13:06:25.782Z,2.6
2023-04-27T13:07:30.766Z,2.6
2023-04-27T13:08:35.289Z,2.6
2023-04-27T13:09:40.066Z,2.6
2023-04-27T13:10:44.838Z,2.6
2023-04-27T13:11:49.611Z,2.6
2023-04-27T13:12:54.628Z,2.6
2023-04-27T13:13:59.321Z,2.6
2023-04-27T13:15:04.138Z,2.6
2023-04-27T13:16:08.821Z,2.6
2023-04-27T13:17:13.681Z,2.6
2023-04-27T13:18:18.369Z,2.6
2023-04-27T13:19:23.020Z,2.6
2023-04-27T13:20:27.814Z,1.5
2023-04-27T13:21:32.786Z,1.5
2023-04-27T13:22:37.485Z,1.5
2023-04-27T13:23:42.137Z,1.5
2023-04-27T13:24:47.111Z,1.5
2023-04-27T13:25:51.772Z,1.5
2023-04-27T13:26:56.444Z,1.5
2023-04-27T13:28:01.371Z,1.5
2023-04-27T13:29:06.187Z,1.5
2023-04-27T13:30:10.810Z,1.5
2023-04-27T13:31:15.644Z,1.5
2023-04-27T13:32:20.363Z,1.5
2023-04-27T13:33:25.144Z,1.5
2023-04-27T13:34:29.877Z,1.5
2023-04-27T13:35:34.654Z,1.5
2023-04-27T13:36:39.476Z,1.5
2023-04-27T13:37:44.453Z,1.5
2023-04-27T13:38:48.984Z,1.5
2023-04-27T13:39:53.765Z,1.5
2023-04-27T13:40:58.618Z,1.5
2023-04-27T13:42:03.377Z,1.5
2023-04-27T13:43:08.154Z,1.5
2023-04-27T13:44:13.073Z,1.5
2023-04-27T13:45:17.686Z,1.5
2023-04-27T13:46:22.513Z,1.5
2023-04-27T13:47:27.311Z,1.5
2023-04-27T13:48:32.034Z,1.5
2023-04-27T13:49:36.822Z,1.5
2023-04-27T13:50:41.624Z,1.5
2023-04-27T13:51:46.621Z,1.5
2023-04-27T13:52:51.185Z,1.5
2023-04-27T13:53:56.028Z,1.5
2023-04-27T13:55:00.733Z,1.5
2023-04-27T13:56:05.501Z,1.5
2023-04-27T13:57:10.256Z,1.5
2023-04-27T13:58:15.037Z,1.5
2023-04-27T13:59:19.830Z,1.5
2023-04-27T14:00:24.558Z,1.5
2023-04-27T14:01:29.423Z,1.5
2023-04-27T14:02:34.214Z,1.5
2023-04-27T14:03:39.831Z,1.5
2023-04-27T14:04:43.732Z,1.5
2023-04-27T14:05:48.449Z,1.5
2023-04-27T14:06:53.477Z,1.5
2023-04-27T14:07:58.021Z,1.5
2023-04-27T14:09:02.804Z,1.5
2023-04-27T14:10:07.592Z,1.5
2023-04-27T14:11:12.333Z,1.5
2023-04-27T14:12:17.338Z,1.5
2023-04-27T14:13:21.933Z,1.5
2023-04-27T14:14:26.661Z,1.5
2023-04-27T14:15:31.459Z,1.5
2023-04-27T14:16:36.386Z,1.5
2023-04-27T14:17:41.191Z,1.5
2023-04-27T14:18:45.779Z,1.5
2023-04-27T14:19:50.556Z,1.5
2023-04-27T14:20:55.314Z,2.6
2023-04-27T14:22:00.322Z,2.6
2023-04-27T14:23:04.906Z,2.6
2023-04-27T14:24:09.731Z,2.6
2023-04-27T14:25:14.656Z,2.6
2023-04-27T14:26:19.404Z,2.6
2023-04-27T14:27:24.196Z,2.6
2023-04-27T14:28:28.825Z,2.6
2023-04-27T14:29:33.589Z,2.6
2023-04-27T14:30:38.400Z,2.6
2023-04-27T14:31:43.220Z,2.6
2023-04-27T14:32:48.103Z,2.6
2023-04-27T14:33:52.747Z,2.6
2023-04-27T14:34:57.741Z,2.6
2023-04-27T14:36:02.454Z,2.6
2023-04-27T14:37:07.100Z,2.6
2023-04-27T14:38:11.844Z,2.6
2023-04-27T14:39:16.852Z,2.6
2023-04-27T14:40:21.528Z,2.1
2023-04-27T14:41:26.185Z,2.1
2023-04-27T14:42:30.996Z,2.1
2023-04-27T14:43:35.793Z,2.1
2023-04-27T14:44:40.604Z,2.1
2023-04-27T14:45:52.558Z,2.1
2023-04-27T14:46:50.291Z,2.1
2023-04-27T14:47:54.942Z,2.1
2023-04-27T14:48:59.768Z,2.1
2023-04-27T14:50:04.352Z,2.1
2023-04-27T14:51:09.199Z,2.1
2023-04-27T14:52:14.110Z,2.1
2023-04-27T14:53:18.859Z,2.1
2023-04-27T14:54:23.734Z,2.1
2023-04-27T14:55:28.308Z,2.1
2023-04-27T14:56:33.181Z,2.1
2023-04-27T14:57:38.000Z,2.1
2023-04-27T14:58:42.832Z,2.1
2023-04-27T14:59:47.538Z,2.1
2023-04-27T15:00:53.722Z,2.1
2023-04-27T15:01:58.680Z,2.1
2023-04-27T15:03:03.419Z,2.1
2023-04-27T15:04:08.310Z,2.1
2023-04-27T15:05:12.853Z,2.1
2023-04-27T15:06:17.628Z,2.1
2023-04-27T15:07:22.446Z,2.1
2023-04-27T15:08:27.134Z,2.1
2023-04-27T15:09:32.033Z,2.1
2023-04-27T15:10:36.745Z,2.1
2023-04-27T15:11:41.429Z,2.1
2023-04-27T15:12:46.458Z,2.1
2023-04-27T15:13:51.031Z,2.1
2023-04-27T15:14:55.918Z,2.1
2023-04-27T15:16:00.885Z,2.1
2023-04-27T15:17:05.558Z,2.1
2023-04-27T15:18:10.163Z,2.1
2023-04-27T15:19:15.212Z,2.1
2023-04-27T15:20:19.714Z,1.5
2023-04-27T15:21:24.404Z,1.5
2023-04-27T15:22:29.285Z,1.5
2023-04-27T15:23:33.978Z,1.5
2023-04-27T15:24:38.789Z,1.5
2023-04-27T15:25:43.462Z,1.5
2023-04-27T15:26:48.338Z,1.5
2023-04-27T15:27:53.038Z,1.5
2023-04-27T15:28:57.832Z,1.5
2023-04-27T15:30:02.630Z,1.5
2023-04-27T15:31:07.552Z,1.5
2023-04-27T15:32:12.337Z,1.5
2023-04-27T15:33:17.146Z,1.5
2023-04-27T15:34:22.001Z,1.5
2023-04-27T15:35:26.571Z,1.5
2023-04-27T15:36:31.358Z,1.5
2023-04-27T15:37:36.140Z,1.5
2023-04-27T15:38:40.853Z,1.5
2023-04-27T15:39:45.629Z,1.5
2023-04-27T15:40:51.835Z,2.6
2023-04-27T15:41:56.761Z,2.6
2023-04-27T15:43:01.382Z,2.6
2023-04-27T15:44:06.363Z,2.6
2023-04-27T15:45:10.980Z,2.6
2023-04-27T15:46:15.723Z,2.6
2023-04-27T15:47:20.472Z,2.6
2023-04-27T15:48:25.362Z,2.6
2023-04-27T15:49:30.057Z,2.6
2023-04-27T15:50:34.878Z,2.6
2023-04-27T15:51:39.494Z,2.6
2023-04-27T15:52:44.443Z,2.6
2023-04-27T15:53:49.241Z,2.6
2023-04-27T15:54:53.842Z,2.6
2023-04-27T15:55:58.650Z,2.6
2023-04-27T15:57:03.391Z,2.6
2023-04-27T15:58:08.284Z,2.6
2023-04-27T15:59:13.261Z,2.6
2023-04-27T16:00:17.861Z,2.6
2023-04-27T16:01:22.604Z,2.6
2023-04-27T16:02:27.339Z,2.6
2023-04-27T16:03:32.104Z,2.6
2023-04-27T16:04:36.797Z,2.6
2023-04-27T16:05:41.605Z,2.6
2023-04-27T16:06:46.381Z,2.6
2023-04-27T16:07:51.226Z,2.6
2023-04-27T16:08:55.905Z,2.6
2023-04-27T16:10:00.747Z,2.6
2023-04-27T16:11:05.488Z,2.6
2023-04-27T16:12:10.385Z,2.6
2023-04-27T16:13:15.056Z,2.6
2023-04-27T16:14:19.890Z,2.6
2023-04-27T16:15:24.600Z,2.6
2023-04-27T16:16:29.589Z,2.6
2023-04-27T16:17:34.142Z,2.6
2023-04-27T16:18:38.884Z,2.6
2023-04-27T16:19:43.764Z,2.6
2023-04-27T16:20:48.593Z,2.6